sensor_id;sensor_type;location;lat;lon;timestamp;temperature;humidity
35603;DHT22;21725;50.836;4.368;2023-09-19T00:00:46;17.90;99.90
35603;DHT22;21725;50.836;4.368;2023-09-19T00:04:37;17.80;99.90
35603;DHT22;21725;50.836;4.368;2023-09-19T00:08:12;17.90;99.90
35603;DHT22;21725;50.836;4.368;2023-09-19T00:11:26;17.90;99.90
35603;DHT22;21725;50.836;4.368;2023-09-19T00:14:30;18.00;99.90
35603;DHT22;21725;50.836;4.368;2023-09-19T00:17:54;18.00;99.90
35603;DHT22;21725;50.836;4.368;2023-09-19T00:21:09;18.10;99.90
35603;DHT22;21725;50.836;4.368;2023-09-19T00:24:22;18.10;99.90
35603;DHT22;21725;50.836;4.368;2023-09-19T00:30:55;18.10;99.90
35603;DHT22;21725;50.836;4.368;2023-09-19T00:34:11;18.10;99.90
35603;DHT22;21725;50.836;4.368;2023-09-19T00:37:17;18.10;99.90
35603;DHT22;21725;50.836;4.368;2023-09-19T00:40:29;18.10;99.90
35603;DHT22;21725;50.836;4.368;2023-09-19T00:43:54;18.00;99.90
35603;DHT22;21725;50.836;4.368;2023-09-19T00:47:02;17.90;99.90
35603;DHT22;21725;50.836;4.368;2023-09-19T00:50:36;18.00;99.90
35603;DHT22;21725;50.836;4.368;2023-09-19T00:53:47;18.00;99.90
35603;DHT22;21725;50.836;4.368;2023-09-19T00:56:56;17.90;99.90
35603;DHT22;21725;50.836;4.368;2023-09-19T01:03:26;17.90;99.90
35603;DHT22;21725;50.836;4.368;2023-09-19T01:06:34;17.60;99.90
35603;DHT22;21725;50.836;4.368;2023-09-19T01:09:45;17.70;99.90
35603;DHT22;21725;50.836;4.368;2023-09-19T01:13:58;17.90;99.90
35603;DHT22;21725;50.836;4.368;2023-09-19T01:30:48;17.90;99.90
35603;DHT22;21725;50.836;4.368;2023-09-19T01:34:04;18.00;99.90
35603;DHT22;21725;50.836;4.368;2023-09-19T01:37:21;18.00;99.90
35603;DHT22;21725;50.836;4.368;2023-09-19T01:40:45;17.90;99.90
35603;DHT22;21725;50.836;4.368;2023-09-19T01:44:04;17.90;99.90
35603;DHT22;21725;50.836;4.368;2023-09-19T01:47:16;17.80;99.90
35603;DHT22;21725;50.836;4.368;2023-09-19T01:50:30;17.90;99.90
35603;DHT22;21725;50.836;4.368;2023-09-19T01:57:49;18.00;99.90
35603;DHT22;21725;50.836;4.368;2023-09-19T02:00:59;17.90;99.90
35603;DHT22;21725;50.836;4.368;2023-09-19T02:04:13;17.90;99.90
35603;DHT22;21725;50.836;4.368;2023-09-19T02:07:31;18.00;99.90
35603;DHT22;21725;50.836;4.368;2023-09-19T02:10:40;17.90;99.90
35603;DHT22;21725;50.836;4.368;2023-09-19T02:13:47;17.90;99.90
35603;DHT22;21725;50.836;4.368;2023-09-19T02:17:04;17.80;99.90
35603;DHT22;21725;50.836;4.368;2023-09-19T02:20:14;17.90;99.90
35603;DHT22;21725;50.836;4.368;2023-09-19T02:23:27;18.00;99.90
35603;DHT22;21725;50.836;4.368;2023-09-19T02:26:50;18.20;99.80
35603;DHT22;21725;50.836;4.368;2023-09-19T02:30:07;18.10;99.90
35603;DHT22;21725;50.836;4.368;2023-09-19T02:33:23;18.10;99.90
35603;DHT22;21725;50.836;4.368;2023-09-19T02:36:42;18.00;99.90
35603;DHT22;21725;50.836;4.368;2023-09-19T02:40:19;18.10;99.90
35603;DHT22;21725;50.836;4.368;2023-09-19T02:43:55;18.10;99.90
35603;DHT22;21725;50.836;4.368;2023-09-19T02:47:13;17.90;99.90
35603;DHT22;21725;50.836;4.368;2023-09-19T02:50:37;17.70;99.90
35603;DHT22;21725;50.836;4.368;2023-09-19T02:53:47;17.70;99.90
35603;DHT22;21725;50.836;4.368;2023-09-19T02:56:58;17.70;99.90
35603;DHT22;21725;50.836;4.368;2023-09-19T03:00:14;17.90;99.90
35603;DHT22;21725;50.836;4.368;2023-09-19T03:03:26;17.80;99.90
35603;DHT22;21725;50.836;4.368;2023-09-19T03:06:42;17.80;99.90
35603;DHT22;21725;50.836;4.368;2023-09-19T03:10:17;17.60;99.90
35603;DHT22;21725;50.836;4.368;2023-09-19T03:13:28;17.50;99.90
35603;DHT22;21725;50.836;4.368;2023-09-19T03:16:34;17.60;99.90
35603;DHT22;21725;50.836;4.368;2023-09-19T03:19:48;17.60;99.90
35603;DHT22;21725;50.836;4.368;2023-09-19T03:23:01;17.50;99.90
35603;DHT22;21725;50.836;4.368;2023-09-19T03:26:09;17.50;99.90
35603;DHT22;21725;50.836;4.368;2023-09-19T03:29:15;17.30;99.90
35603;DHT22;21725;50.836;4.368;2023-09-19T03:35:56;17.60;99.90
35603;DHT22;21725;50.836;4.368;2023-09-19T03:39:29;17.80;99.90
35603;DHT22;21725;50.836;4.368;2023-09-19T03:42:32;17.80;99.90
35603;DHT22;21725;50.836;4.368;2023-09-19T03:45:42;17.80;99.90
35603;DHT22;21725;50.836;4.368;2023-09-19T03:49:00;17.70;99.90
35603;DHT22;21725;50.836;4.368;2023-09-19T03:52:03;17.70;99.90
35603;DHT22;21725;50.836;4.368;2023-09-19T03:55:12;17.70;99.90
35603;DHT22;21725;50.836;4.368;2023-09-19T03:58:17;17.70;99.90
35603;DHT22;21725;50.836;4.368;2023-09-19T04:01:23;17.70;99.90
35603;DHT22;21725;50.836;4.368;2023-09-19T04:04:57;17.60;99.90
35603;DHT22;21725;50.836;4.368;2023-09-19T04:08:01;17.70;99.90
35603;DHT22;21725;50.836;4.368;2023-09-19T04:11:07;17.70;99.90
35603;DHT22;21725;50.836;4.368;2023-09-19T04:14:23;17.60;99.90
35603;DHT22;21725;50.836;4.368;2023-09-19T04:17:37;17.60;99.90
35603;DHT22;21725;50.836;4.368;2023-09-19T04:20:42;17.60;99.90
35603;DHT22;21725;50.836;4.368;2023-09-19T04:24:08;17.60;99.90
35603;DHT22;21725;50.836;4.368;2023-09-19T04:27:14;17.70;99.90
35603;DHT22;21725;50.836;4.368;2023-09-19T04:30:36;17.60;99.90
35603;DHT22;21725;50.836;4.368;2023-09-19T04:33:42;17.50;99.90
35603;DHT22;21725;50.836;4.368;2023-09-19T04:40:27;17.30;99.90
35603;DHT22;21725;50.836;4.368;2023-09-19T04:43:29;17.20;99.90
35603;DHT22;21725;50.836;4.368;2023-09-19T04:50:19;17.00;99.90
35603;DHT22;21725;50.836;4.368;2023-09-19T04:53:39;16.90;99.90
35603;DHT22;21725;50.836;4.368;2023-09-19T04:56:45;17.00;99.90
35603;DHT22;21725;50.836;4.368;2023-09-19T04:59:52;17.00;99.90
35603;DHT22;21725;50.836;4.368;2023-09-19T05:03:22;16.90;99.90
35603;DHT22;21725;50.836;4.368;2023-09-19T05:06:40;16.90;99.90
35603;DHT22;21725;50.836;4.368;2023-09-19T05:10:06;16.90;99.90
35603;DHT22;21725;50.836;4.368;2023-09-19T05:13:17;16.80;99.90
35603;DHT22;21725;50.836;4.368;2023-09-19T05:16:23;16.70;99.90
35603;DHT22;21725;50.836;4.368;2023-09-19T05:19:24;16.70;99.90
35603;DHT22;21725;50.836;4.368;2023-09-19T05:22:28;16.80;99.90
35603;DHT22;21725;50.836;4.368;2023-09-19T05:25:49;16.90;99.90
35603;DHT22;21725;50.836;4.368;2023-09-19T05:28:59;17.00;99.90
35603;DHT22;21725;50.836;4.368;2023-09-19T05:32:14;17.00;99.90
35603;DHT22;21725;50.836;4.368;2023-09-19T05:35:32;16.80;99.90
35603;DHT22;21725;50.836;4.368;2023-09-19T05:38:45;16.80;99.90
35603;DHT22;21725;50.836;4.368;2023-09-19T05:41:57;16.90;99.90
35603;DHT22;21725;50.836;4.368;2023-09-19T05:45:00;17.20;99.90
35603;DHT22;21725;50.836;4.368;2023-09-19T05:48:14;17.30;99.90
35603;DHT22;21725;50.836;4.368;2023-09-19T05:54:59;17.40;99.90
35603;DHT22;21725;50.836;4.368;2023-09-19T05:58:00;17.30;99.90
35603;DHT22;21725;50.836;4.368;2023-09-19T06:01:27;17.20;99.90
35603;DHT22;21725;50.836;4.368;2023-09-19T06:04:59;17.00;99.90
35603;DHT22;21725;50.836;4.368;2023-09-19T06:08:05;16.80;99.90
35603;DHT22;21725;50.836;4.368;2023-09-19T06:15:04;17.00;99.90
35603;DHT22;21725;50.836;4.368;2023-09-19T06:18:18;17.30;99.90
35603;DHT22;21725;50.836;4.368;2023-09-19T06:21:25;17.50;99.90
35603;DHT22;21725;50.836;4.368;2023-09-19T06:24:32;17.60;99.90
35603;DHT22;21725;50.836;4.368;2023-09-19T06:27:35;17.60;99.90
35603;DHT22;21725;50.836;4.368;2023-09-19T06:31:11;17.60;99.90
35603;DHT22;21725;50.836;4.368;2023-09-19T06:34:39;17.40;99.90
35603;DHT22;21725;50.836;4.368;2023-09-19T06:37:51;17.30;99.90
35603;DHT22;21725;50.836;4.368;2023-09-19T06:40:58;17.40;99.90
35603;DHT22;21725;50.836;4.368;2023-09-19T06:44:15;17.60;99.90
35603;DHT22;21725;50.836;4.368;2023-09-19T06:47:27;17.50;99.90
35603;DHT22;21725;50.836;4.368;2023-09-19T06:50:35;17.80;99.90
35603;DHT22;21725;50.836;4.368;2023-09-19T06:53:47;17.70;99.90
35603;DHT22;21725;50.836;4.368;2023-09-19T06:57:03;17.80;99.90
35603;DHT22;21725;50.836;4.368;2023-09-19T07:00:29;17.70;99.90
35603;DHT22;21725;50.836;4.368;2023-09-19T07:03:34;17.80;99.90
35603;DHT22;21725;50.836;4.368;2023-09-19T07:06:51;17.80;99.90
35603;DHT22;21725;50.836;4.368;2023-09-19T07:09:57;17.90;99.90
35603;DHT22;21725;50.836;4.368;2023-09-19T07:13:03;17.90;99.90
35603;DHT22;21725;50.836;4.368;2023-09-19T07:16:17;18.00;99.90
35603;DHT22;21725;50.836;4.368;2023-09-19T07:19:40;18.30;99.90
35603;DHT22;21725;50.836;4.368;2023-09-19T07:22:54;18.70;99.90
35603;DHT22;21725;50.836;4.368;2023-09-19T07:26:25;18.80;99.90
35603;DHT22;21725;50.836;4.368;2023-09-19T07:29:40;18.70;99.90
35603;DHT22;21725;50.836;4.368;2023-09-19T07:32:53;18.70;99.90
35603;DHT22;21725;50.836;4.368;2023-09-19T07:36:07;18.60;99.90
35603;DHT22;21725;50.836;4.368;2023-09-19T07:39:13;18.50;99.90
35603;DHT22;21725;50.836;4.368;2023-09-19T07:42:17;18.50;99.90
35603;DHT22;21725;50.836;4.368;2023-09-19T07:45:28;18.40;99.90
35603;DHT22;21725;50.836;4.368;2023-09-19T07:48:36;18.40;99.90
35603;DHT22;21725;50.836;4.368;2023-09-19T07:51:45;18.40;99.90
35603;DHT22;21725;50.836;4.368;2023-09-19T07:55:17;18.70;99.90
35603;DHT22;21725;50.836;4.368;2023-09-19T07:58:28;19.00;99.90
35603;DHT22;21725;50.836;4.368;2023-09-19T08:02:02;19.30;99.90
35603;DHT22;21725;50.836;4.368;2023-09-19T08:05:38;19.20;99.90
35603;DHT22;21725;50.836;4.368;2023-09-19T08:08:41;18.80;99.90
35603;DHT22;21725;50.836;4.368;2023-09-19T08:12:03;18.80;99.90
35603;DHT22;21725;50.836;4.368;2023-09-19T08:15:08;18.90;99.90
35603;DHT22;21725;50.836;4.368;2023-09-19T08:18:17;19.10;99.90
35603;DHT22;21725;50.836;4.368;2023-09-19T08:21:24;19.30;99.90
35603;DHT22;21725;50.836;4.368;2023-09-19T08:24:34;19.20;99.90
35603;DHT22;21725;50.836;4.368;2023-09-19T08:27:46;19.20;99.90
35603;DHT22;21725;50.836;4.368;2023-09-19T08:30:48;19.10;99.90
35603;DHT22;21725;50.836;4.368;2023-09-19T08:33:59;19.20;99.90
35603;DHT22;21725;50.836;4.368;2023-09-19T08:37:03;19.20;99.90
35603;DHT22;21725;50.836;4.368;2023-09-19T08:40:11;19.30;99.90
35603;DHT22;21725;50.836;4.368;2023-09-19T08:46:54;19.90;99.40
35603;DHT22;21725;50.836;4.368;2023-09-19T08:50:09;19.80;99.10
35603;DHT22;21725;50.836;4.368;2023-09-19T08:53:34;19.60;99.40
35603;DHT22;21725;50.836;4.368;2023-09-19T08:56:39;19.70;99.00
35603;DHT22;21725;50.836;4.368;2023-09-19T08:59:48;19.80;98.80
35603;DHT22;21725;50.836;4.368;2023-09-19T09:02:57;19.90;98.40
35603;DHT22;21725;50.836;4.368;2023-09-19T09:06:01;19.80;98.30
35603;DHT22;21725;50.836;4.368;2023-09-19T09:09:08;19.80;98.40
35603;DHT22;21725;50.836;4.368;2023-09-19T09:12:35;19.70;98.40
35603;DHT22;21725;50.836;4.368;2023-09-19T09:15:48;19.80;98.40
35603;DHT22;21725;50.836;4.368;2023-09-19T09:22:44;20.20;97.40
35603;DHT22;21725;50.836;4.368;2023-09-19T09:26:05;20.30;97.10
35603;DHT22;21725;50.836;4.368;2023-09-19T09:29:50;20.40;97.10
35603;DHT22;21725;50.836;4.368;2023-09-19T09:33:08;20.70;96.70
35603;DHT22;21725;50.836;4.368;2023-09-19T09:36:16;21.00;96.10
35603;DHT22;21725;50.836;4.368;2023-09-19T09:39:37;21.00;95.70
35603;DHT22;21725;50.836;4.368;2023-09-19T09:42:55;21.00;95.70
35603;DHT22;21725;50.836;4.368;2023-09-19T09:46:20;21.00;95.70
35603;DHT22;21725;50.836;4.368;2023-09-19T09:49:26;21.00;95.90
35603;DHT22;21725;50.836;4.368;2023-09-19T09:52:44;21.10;95.30
35603;DHT22;21725;50.836;4.368;2023-09-19T09:56:07;20.80;95.80
35603;DHT22;21725;50.836;4.368;2023-09-19T09:59:12;20.80;95.60
35603;DHT22;21725;50.836;4.368;2023-09-19T10:02:24;20.50;95.90
35603;DHT22;21725;50.836;4.368;2023-09-19T10:05:44;20.40;96.20
35603;DHT22;21725;50.836;4.368;2023-09-19T10:09:23;20.40;96.20
35603;DHT22;21725;50.836;4.368;2023-09-19T10:12:32;20.30;96.50
35603;DHT22;21725;50.836;4.368;2023-09-19T10:15:53;20.30;96.50
35603;DHT22;21725;50.836;4.368;2023-09-19T10:19:07;20.40;96.30
35603;DHT22;21725;50.836;4.368;2023-09-19T10:22:12;20.40;96.30
35603;DHT22;21725;50.836;4.368;2023-09-19T10:25:35;20.50;96.40
35603;DHT22;21725;50.836;4.368;2023-09-19T10:28:40;20.70;96.10
35603;DHT22;21725;50.836;4.368;2023-09-19T10:31:44;21.10;95.80
35603;DHT22;21725;50.836;4.368;2023-09-19T10:34:51;21.40;95.30
35603;DHT22;21725;50.836;4.368;2023-09-19T10:38:25;21.40;95.40
35603;DHT22;21725;50.836;4.368;2023-09-19T10:41:57;21.10;95.60
35603;DHT22;21725;50.836;4.368;2023-09-19T10:45:04;20.80;96.00
35603;DHT22;21725;50.836;4.368;2023-09-19T10:48:08;20.60;96.20
35603;DHT22;21725;50.836;4.368;2023-09-19T10:51:40;20.70;96.10
35603;DHT22;21725;50.836;4.368;2023-09-19T10:54:50;20.80;96.00
35603;DHT22;21725;50.836;4.368;2023-09-19T10:58:08;20.80;96.10
35603;DHT22;21725;50.836;4.368;2023-09-19T11:01:19;21.10;95.70
35603;DHT22;21725;50.836;4.368;2023-09-19T11:04:30;21.20;95.60
35603;DHT22;21725;50.836;4.368;2023-09-19T11:08:08;20.90;95.90
35603;DHT22;21725;50.836;4.368;2023-09-19T11:11:50;20.70;96.30
35603;DHT22;21725;50.836;4.368;2023-09-19T11:16:03;20.90;96.10
35603;DHT22;21725;50.836;4.368;2023-09-19T11:22:04;21.40;95.80
35603;DHT22;21725;50.836;4.368;2023-09-19T11:28:48;22.00;95.10
35603;DHT22;21725;50.836;4.368;2023-09-19T11:39:40;22.30;94.60
35603;DHT22;21725;50.836;4.368;2023-09-19T11:42:57;21.90;95.00
35603;DHT22;21725;50.836;4.368;2023-09-19T11:46:01;21.70;95.30
35603;DHT22;21725;50.836;4.368;2023-09-19T11:49:10;21.90;95.10
35603;DHT22;21725;50.836;4.368;2023-09-19T11:52:22;22.00;95.00
35603;DHT22;21725;50.836;4.368;2023-09-19T11:55:45;21.70;95.20
35603;DHT22;21725;50.836;4.368;2023-09-19T11:59:13;21.50;95.70
35603;DHT22;21725;50.836;4.368;2023-09-19T12:02:54;21.70;95.30
35603;DHT22;21725;50.836;4.368;2023-09-19T12:06:01;21.50;95.40
35603;DHT22;21725;50.836;4.368;2023-09-19T12:09:15;21.40;95.70
35603;DHT22;21725;50.836;4.368;2023-09-19T12:12:27;21.50;95.80
35603;DHT22;21725;50.836;4.368;2023-09-19T12:15:30;21.80;95.30
35603;DHT22;21725;50.836;4.368;2023-09-19T12:18:48;22.10;95.00
35603;DHT22;21725;50.836;4.368;2023-09-19T12:22:25;22.40;94.70
35603;DHT22;21725;50.836;4.368;2023-09-19T12:25:30;22.50;94.40
35603;DHT22;21725;50.836;4.368;2023-09-19T12:28:44;22.00;95.10
35603;DHT22;21725;50.836;4.368;2023-09-19T12:31:54;21.80;95.40
35603;DHT22;21725;50.836;4.368;2023-09-19T12:35:02;21.90;95.40
35603;DHT22;21725;50.836;4.368;2023-09-19T12:38:21;22.30;94.90
35603;DHT22;21725;50.836;4.368;2023-09-19T12:41:27;22.50;94.70
35603;DHT22;21725;50.836;4.368;2023-09-19T12:44:34;22.30;94.70
35603;DHT22;21725;50.836;4.368;2023-09-19T12:51:40;22.30;94.90
35603;DHT22;21725;50.836;4.368;2023-09-19T12:54:52;22.30;94.70
35603;DHT22;21725;50.836;4.368;2023-09-19T13:01:22;22.40;94.70
35603;DHT22;21725;50.836;4.368;2023-09-19T13:04:54;22.40;94.70
35603;DHT22;21725;50.836;4.368;2023-09-19T13:08:35;22.50;94.60
35603;DHT22;21725;50.836;4.368;2023-09-19T13:11:43;22.10;95.00
35603;DHT22;21725;50.836;4.368;2023-09-19T13:15:09;22.10;95.20
35603;DHT22;21725;50.836;4.368;2023-09-19T13:18:44;22.40;94.80
35603;DHT22;21725;50.836;4.368;2023-09-19T13:25:59;22.00;95.10
35603;DHT22;21725;50.836;4.368;2023-09-19T13:29:09;22.10;95.20
35603;DHT22;21725;50.836;4.368;2023-09-19T13:32:22;22.60;94.70
35603;DHT22;21725;50.836;4.368;2023-09-19T13:35:25;22.90;94.20
35603;DHT22;21725;50.836;4.368;2023-09-19T13:38:29;22.90;94.00
35603;DHT22;21725;50.836;4.368;2023-09-19T13:41:37;22.70;94.10
35603;DHT22;21725;50.836;4.368;2023-09-19T13:44:46;22.20;94.60
35603;DHT22;21725;50.836;4.368;2023-09-19T13:47:49;22.10;95.00
35603;DHT22;21725;50.836;4.368;2023-09-19T13:50:53;22.00;95.10
35603;DHT22;21725;50.836;4.368;2023-09-19T13:53:57;22.10;95.10
35603;DHT22;21725;50.836;4.368;2023-09-19T13:57:05;22.00;95.30
35603;DHT22;21725;50.836;4.368;2023-09-19T14:00:40;21.80;95.50
35603;DHT22;21725;50.836;4.368;2023-09-19T14:03:53;21.90;95.50
35603;DHT22;21725;50.836;4.368;2023-09-19T14:07:24;22.00;95.20
35603;DHT22;21725;50.836;4.368;2023-09-19T14:10:43;22.10;95.30
35603;DHT22;21725;50.836;4.368;2023-09-19T14:13:51;22.30;95.10
35603;DHT22;21725;50.836;4.368;2023-09-19T14:17:02;22.50;94.90
35603;DHT22;21725;50.836;4.368;2023-09-19T14:20:23;22.50;94.60
35603;DHT22;21725;50.836;4.368;2023-09-19T14:23:37;22.50;94.70
35603;DHT22;21725;50.836;4.368;2023-09-19T14:26:47;22.70;94.40
35603;DHT22;21725;50.836;4.368;2023-09-19T14:29:53;23.00;94.10
35603;DHT22;21725;50.836;4.368;2023-09-19T14:33:06;23.00;94.20
35603;DHT22;21725;50.836;4.368;2023-09-19T14:36:18;22.50;94.90
35603;DHT22;21725;50.836;4.368;2023-09-19T14:39:31;22.50;94.90
35603;DHT22;21725;50.836;4.368;2023-09-19T14:42:38;22.60;94.70
35603;DHT22;21725;50.836;4.368;2023-09-19T14:45:52;22.40;94.70
35603;DHT22;21725;50.836;4.368;2023-09-19T14:49:00;22.30;95.00
35603;DHT22;21725;50.836;4.368;2023-09-19T14:52:31;22.20;95.10
35603;DHT22;21725;50.836;4.368;2023-09-19T14:55:36;22.60;94.80
35603;DHT22;21725;50.836;4.368;2023-09-19T14:58:47;22.70;94.40
35603;DHT22;21725;50.836;4.368;2023-09-19T15:01:51;22.80;94.30
35603;DHT22;21725;50.836;4.368;2023-09-19T15:05:02;22.40;94.80
35603;DHT22;21725;50.836;4.368;2023-09-19T15:08:19;22.10;95.20
35603;DHT22;21725;50.836;4.368;2023-09-19T15:11:26;22.00;95.40
35603;DHT22;21725;50.836;4.368;2023-09-19T15:14:34;22.10;95.30
35603;DHT22;21725;50.836;4.368;2023-09-19T15:17:40;22.30;95.00
35603;DHT22;21725;50.836;4.368;2023-09-19T15:20:49;22.30;94.90
35603;DHT22;21725;50.836;4.368;2023-09-19T15:23:51;21.80;95.50
35603;DHT22;21725;50.836;4.368;2023-09-19T15:26:52;21.80;95.70
35603;DHT22;21725;50.836;4.368;2023-09-19T15:33:38;21.90;95.60
35603;DHT22;21725;50.836;4.368;2023-09-19T15:36:42;21.70;95.80
35603;DHT22;21725;50.836;4.368;2023-09-19T15:39:47;21.60;96.20
35603;DHT22;21725;50.836;4.368;2023-09-19T15:42:54;21.70;96.10
35603;DHT22;21725;50.836;4.368;2023-09-19T15:45:59;21.90;95.90
35603;DHT22;21725;50.836;4.368;2023-09-19T15:49:09;21.90;95.80
35603;DHT22;21725;50.836;4.368;2023-09-19T15:52:19;21.70;96.20
35603;DHT22;21725;50.836;4.368;2023-09-19T15:55:27;21.40;96.70
35603;DHT22;21725;50.836;4.368;2023-09-19T15:58:30;21.50;96.60
35603;DHT22;21725;50.836;4.368;2023-09-19T16:01:43;21.80;96.20
35603;DHT22;21725;50.836;4.368;2023-09-19T16:05:00;21.70;96.10
35603;DHT22;21725;50.836;4.368;2023-09-19T16:08:21;21.70;96.20
35603;DHT22;21725;50.836;4.368;2023-09-19T16:11:31;21.80;96.30
35603;DHT22;21725;50.836;4.368;2023-09-19T16:14:54;21.80;96.10
35603;DHT22;21725;50.836;4.368;2023-09-19T16:18:22;21.50;96.40
35603;DHT22;21725;50.836;4.368;2023-09-19T16:21:39;21.40;96.70
35603;DHT22;21725;50.836;4.368;2023-09-19T16:25:06;21.30;96.80
35603;DHT22;21725;50.836;4.368;2023-09-19T16:28:19;21.60;96.50
35603;DHT22;21725;50.836;4.368;2023-09-19T16:31:25;21.40;96.70
35603;DHT22;21725;50.836;4.368;2023-09-19T16:34:57;21.10;97.20
35603;DHT22;21725;50.836;4.368;2023-09-19T16:38:02;21.30;97.00
35603;DHT22;21725;50.836;4.368;2023-09-19T16:41:31;21.60;96.60
35603;DHT22;21725;50.836;4.368;2023-09-19T16:44:38;21.60;96.50
35603;DHT22;21725;50.836;4.368;2023-09-19T16:47:51;21.40;96.70
35603;DHT22;21725;50.836;4.368;2023-09-19T16:50:58;21.20;97.00
35603;DHT22;21725;50.836;4.368;2023-09-19T16:54:38;21.40;96.90
35603;DHT22;21725;50.836;4.368;2023-09-19T16:57:48;21.50;96.70
35603;DHT22;21725;50.836;4.368;2023-09-19T17:00:51;21.40;96.90
35603;DHT22;21725;50.836;4.368;2023-09-19T17:03:57;21.30;97.20
35603;DHT22;21725;50.836;4.368;2023-09-19T17:07:03;21.30;97.40
35603;DHT22;21725;50.836;4.368;2023-09-19T17:10:09;21.10;97.60
35603;DHT22;21725;50.836;4.368;2023-09-19T17:16:33;20.70;98.20
35603;DHT22;21725;50.836;4.368;2023-09-19T17:19:44;20.60;98.30
35603;DHT22;21725;50.836;4.368;2023-09-19T17:23:16;20.70;98.50
35603;DHT22;21725;50.836;4.368;2023-09-19T17:26:28;20.80;98.30
35603;DHT22;21725;50.836;4.368;2023-09-19T17:29:39;20.90;98.40
35603;DHT22;21725;50.836;4.368;2023-09-19T17:32:56;20.80;98.90
35603;DHT22;21725;50.836;4.368;2023-09-19T17:36:11;20.70;98.90
35603;DHT22;21725;50.836;4.368;2023-09-19T17:39:19;20.60;99.10
35603;DHT22;21725;50.836;4.368;2023-09-19T17:42:29;20.80;98.90
35603;DHT22;21725;50.836;4.368;2023-09-19T17:45:52;20.90;98.50
35603;DHT22;21725;50.836;4.368;2023-09-19T17:52:08;21.10;98.00
35603;DHT22;21725;50.836;4.368;2023-09-19T17:55:49;21.10;98.00
35603;DHT22;21725;50.836;4.368;2023-09-19T18:14:11;21.10;98.20
35603;DHT22;21725;50.836;4.368;2023-09-19T18:25:43;21.10;97.90
35603;DHT22;21725;50.836;4.368;2023-09-19T18:28:55;21.10;97.90
35603;DHT22;21725;50.836;4.368;2023-09-19T18:32:24;21.10;97.90
35603;DHT22;21725;50.836;4.368;2023-09-19T18:35:36;21.00;97.80
35603;DHT22;21725;50.836;4.368;2023-09-19T18:38:52;21.10;97.70
35603;DHT22;21725;50.836;4.368;2023-09-19T18:42:15;21.00;97.70
35603;DHT22;21725;50.836;4.368;2023-09-19T18:49:12;21.10;97.60
35603;DHT22;21725;50.836;4.368;2023-09-19T18:52:24;21.10;97.60
35603;DHT22;21725;50.836;4.368;2023-09-19T18:55:54;21.00;97.70
35603;DHT22;21725;50.836;4.368;2023-09-19T19:00:24;20.90;97.80
35603;DHT22;21725;50.836;4.368;2023-09-19T19:03:32;20.90;97.60
35603;DHT22;21725;50.836;4.368;2023-09-19T19:07:00;20.70;97.90
35603;DHT22;21725;50.836;4.368;2023-09-19T19:18:33;21.10;97.50
35603;DHT22;21725;50.836;4.368;2023-09-19T19:21:45;21.20;97.40
35603;DHT22;21725;50.836;4.368;2023-09-19T19:25:09;21.20;97.40
35603;DHT22;21725;50.836;4.368;2023-09-19T19:28:40;21.10;97.50
35603;DHT22;21725;50.836;4.368;2023-09-19T19:35:37;21.10;97.50
35603;DHT22;21725;50.836;4.368;2023-09-19T19:39:21;21.10;97.50
35603;DHT22;21725;50.836;4.368;2023-09-19T19:42:40;21.00;97.60
35603;DHT22;21725;50.836;4.368;2023-09-19T19:54:26;20.90;97.90
35603;DHT22;21725;50.836;4.368;2023-09-19T19:57:47;21.10;97.50
35603;DHT22;21725;50.836;4.368;2023-09-19T20:01:24;21.30;97.30
35603;DHT22;21725;50.836;4.368;2023-09-19T20:05:07;21.50;97.00
35603;DHT22;21725;50.836;4.368;2023-09-19T20:19:56;21.10;97.70
35603;DHT22;21725;50.836;4.368;2023-09-19T20:38:52;21.30;97.50
35603;DHT22;21725;50.836;4.368;2023-09-19T20:42:36;21.10;97.90
35603;DHT22;21725;50.836;4.368;2023-09-19T20:46:21;21.30;97.50
35603;DHT22;21725;50.836;4.368;2023-09-19T20:50:09;21.10;97.90
35603;DHT22;21725;50.836;4.368;2023-09-19T20:57:48;21.20;97.70
35603;DHT22;21725;50.836;4.368;2023-09-19T21:01:00;21.20;97.80
35603;DHT22;21725;50.836;4.368;2023-09-19T21:11:41;21.00;98.10
35603;DHT22;21725;50.836;4.368;2023-09-19T21:15:22;21.30;97.80
35603;DHT22;21725;50.836;4.368;2023-09-19T21:22:18;21.40;97.60
35603;DHT22;21725;50.836;4.368;2023-09-19T21:25:33;21.10;98.10
35603;DHT22;21725;50.836;4.368;2023-09-19T21:44:14;21.10;98.20
35603;DHT22;21725;50.836;4.368;2023-09-19T21:47:43;21.10;98.30
35603;DHT22;21725;50.836;4.368;2023-09-19T21:55:22;20.90;98.70
35603;DHT22;21725;50.836;4.368;2023-09-19T21:59:26;20.70;98.90
35603;DHT22;21725;50.836;4.368;2023-09-19T22:06:58;20.50;99.40
35603;DHT22;21725;50.836;4.368;2023-09-19T22:17:58;20.70;99.40
35603;DHT22;21725;50.836;4.368;2023-09-19T22:25:03;20.70;99.30
35603;DHT22;21725;50.836;4.368;2023-09-19T22:32:15;21.10;98.80
35603;DHT22;21725;50.836;4.368;2023-09-19T22:39:17;21.10;98.80
35603;DHT22;21725;50.836;4.368;2023-09-19T22:46:56;21.20;98.70
35603;DHT22;21725;50.836;4.368;2023-09-19T22:50:08;21.20;98.70
35603;DHT22;21725;50.836;4.368;2023-09-19T22:53:36;21.20;98.80
35603;DHT22;21725;50.836;4.368;2023-09-19T23:00:44;21.10;99.00
35603;DHT22;21725;50.836;4.368;2023-09-19T23:04:16;21.00;99.10
35603;DHT22;21725;50.836;4.368;2023-09-19T23:15:00;20.90;99.20
35603;DHT22;21725;50.836;4.368;2023-09-19T23:44:34;20.40;99.90
35603;DHT22;21725;50.836;4.368;2023-09-19T23:48:03;20.60;99.90
35603;DHT22;21725;50.836;4.368;2023-09-19T23:52:01;20.70;99.90
